createdAt,value
2023-04-27T00:00:58.944Z,0
2023-04-27T00:06:16.499Z,0
2023-04-27T00:11:36.654Z,0
2023-04-27T00:16:54.286Z,0
2023-04-27T00:22:12.086Z,0
2023-04-27T00:27:29.541Z,0
2023-04-27T00:38:07.115Z,0
2023-04-27T00:48:44.536Z,0
2023-04-27T00:54:02.009Z,0
2023-04-27T00:59:22.268Z,0
2023-04-27T01:04:39.636Z,0
2023-04-27T01:09:56.948Z,0
2023-04-27T01:15:14.097Z,0
2023-04-27T01:20:31.690Z,0
2023-04-27T01:25:48.897Z,0
2023-04-27T01:36:23.202Z,0
2023-04-27T01:41:42.513Z,0
2023-04-27T01:46:59.584Z,0
2023-04-27T01:52:16.662Z,0
2023-04-27T01:57:38.072Z,0
2023-04-27T02:02:55.614Z,0
2023-04-27T02:08:13.346Z,0
2023-04-27T02:13:30.906Z,0
2023-04-27T02:18:48.087Z,0
2023-04-27T02:24:06.019Z,0
2023-04-27T02:29:23.511Z,0
2023-04-27T02:34:41.337Z,0
2023-04-27T02:40:15.029Z,0
2023-04-27T02:45:32.533Z,0
2023-04-27T02:50:51.698Z,0
2023-04-27T02:56:09.133Z,0
2023-04-27T03:06:43.525Z,0
2023-04-27T03:12:00.775Z,0
2023-04-27T03:17:18.148Z,0
2023-04-27T03:22:35.177Z,0
2023-04-27T03:27:52.638Z,0
2023-04-27T03:33:12.808Z,0
2023-04-27T03:38:30.217Z,0
2023-04-27T03:43:47.379Z,0
2023-04-27T03:54:54.877Z,0.5
2023-04-27T04:00:12.240Z,23.7
2023-04-27T04:05:29.267Z,49.2
2023-04-27T04:10:46.118Z,97.9
2023-04-27T04:16:03.074Z,176.7
2023-04-27T04:21:20.069Z,287.9
2023-04-27T04:26:40.015Z,442.5
2023-04-27T04:32:00.243Z,666.7
2023-04-27T04:37:20.530Z,846.2
2023-04-27T04:42:37.426Z,1047.5
2023-04-27T04:47:54.281Z,1310.8
2023-04-27T04:53:14.367Z,1525
2023-04-27T04:58:31.573Z,1697.1
2023-04-27T05:03:48.686Z,1945.4
2023-04-27T05:09:05.743Z,2296.7
2023-04-27T05:14:22.867Z,2485.8
2023-04-27T05:19:43.238Z,2660.8
2023-04-27T05:25:00.304Z,2692.9
2023-04-27T05:30:17.531Z,2872.5
2023-04-27T05:35:35.284Z,3316.3
2023-04-27T05:40:53.466Z,3410
2023-04-27T05:46:11.682Z,3722.9
2023-04-27T05:56:48.851Z,3904.6
2023-04-27T06:02:06.121Z,4115
2023-04-27T06:07:23.293Z,4286.2
2023-04-27T06:12:40.667Z,4566.3
2023-04-27T06:18:00.373Z,5057.1
2023-04-27T06:23:20.334Z,6352.1
2023-04-27T06:28:37.886Z,5897.9
2023-04-27T06:33:54.751Z,6470.4
2023-04-27T06:39:11.934Z,6300
2023-04-27T06:44:29.149Z,6179.2
2023-04-27T06:49:47.952Z,7567.1
2023-04-27T06:55:06.370Z,9948.3
2023-04-27T07:00:23.640Z,7642.9
2023-04-27T07:05:40.984Z,18473.8
2023-04-27T07:10:58.145Z,14649.2
2023-04-27T07:16:18.578Z,13326.7
2023-04-27T07:21:52.812Z,8049.2
2023-04-27T07:27:10.920Z,12970.4
2023-04-27T07:32:28.595Z,19651.7
2023-04-27T07:38:23.021Z,19040
2023-04-27T07:43:41.552Z,17207.1
2023-04-27T07:48:58.874Z,11567.5
2023-04-27T07:54:16.509Z,27195
2023-04-27T08:04:55.067Z,28564.2
2023-04-27T08:10:11.606Z,22156.7
2023-04-27T08:15:28.722Z,30526.7
2023-04-27T08:20:46.847Z,33382.5
2023-04-27T08:26:03.911Z,26912.9
2023-04-27T08:31:21.228Z,32095.8
2023-04-27T08:36:39.072Z,36412.5
2023-04-27T08:41:56.447Z,36067.5
2023-04-27T08:47:13.881Z,39163.3
2023-04-27T08:52:31.357Z,38498.3
2023-04-27T08:57:48.114Z,35899.2
2023-04-27T09:03:05.482Z,39886.7
2023-04-27T09:08:23.071Z,43708.3
2023-04-27T09:13:40.115Z,45648.3
2023-04-27T09:18:57.140Z,42978.3
2023-04-27T09:24:14.521Z,38844.2
2023-04-27T09:29:31.638Z,37845.8
2023-04-27T09:34:48.512Z,41633.3
2023-04-27T09:40:05.758Z,42757.5
2023-04-27T09:45:22.507Z,39698.3
2023-04-27T09:50:39.397Z,42583.3
2023-04-27T09:56:34.189Z,31530
2023-04-27T10:01:50.987Z,40135
2023-04-27T10:07:08.436Z,39106.7
2023-04-27T10:12:25.407Z,40145
2023-04-27T10:17:42.744Z,38331.7
2023-04-27T10:23:45.206Z,37825.8
2023-04-27T10:29:02.758Z,47539.2
2023-04-27T10:34:21.544Z,45940.8
2023-04-27T10:39:47.497Z,43286.7
2023-04-27T10:45:05.923Z,34259.2
2023-04-27T10:50:22.163Z,36450.8
2023-04-27T10:55:47.850Z,40177.5
2023-04-27T11:01:05.907Z,40264.2
2023-04-27T11:06:23.217Z,40078.3
2023-04-27T11:17:17.690Z,37310
2023-04-27T11:22:34.150Z,32990.8
2023-04-27T11:27:58.505Z,35492.5
2023-04-27T11:33:16.180Z,40390
2023-04-27T11:38:33.761Z,33524.2
2023-04-27T11:43:50.455Z,35425.8
2023-04-27T11:49:07.040Z,38800.8
2023-04-27T11:54:24.819Z,38577.5
2023-04-27T11:59:52.785Z,38426.7
2023-04-27T12:05:10.472Z,43645
2023-04-27T12:10:49.068Z,42688.3
2023-04-27T12:16:06.902Z,40301.7
2023-04-27T12:21:23.587Z,40794.2
2023-04-27T12:26:41.127Z,44881.7
2023-04-27T12:31:58.445Z,47332.5
2023-04-27T12:37:15.427Z,51361.9
2023-04-27T12:42:32.674Z,48511.7
2023-04-27T12:48:02.362Z,47546.7
2023-04-27T12:53:20.207Z,40458.3
2023-04-27T12:58:45.653Z,42409.2
2023-04-27T13:04:03.639Z,44133.3
2023-04-27T13:09:38.510Z,42950.8
2023-04-27T13:14:55.759Z,41470
2023-04-27T13:25:31.593Z,45910
2023-04-27T13:31:26.728Z,42513.3
2023-04-27T13:36:44.572Z,40678.3
2023-04-27T13:42:01.307Z,39254.2
2023-04-27T13:47:18.285Z,36971.7
2023-04-27T13:52:52.643Z,39803.3
2023-04-27T13:58:09.823Z,23683.7
2023-04-27T14:03:36.512Z,31420
2023-04-27T14:08:55.526Z,31715
2023-04-27T14:14:12.547Z,34070
2023-04-27T14:19:30.642Z,32412.5
2023-04-27T14:24:46.652Z,28950
2023-04-27T14:30:03.142Z,27460
2023-04-27T14:35:23.458Z,29698.3
2023-04-27T14:40:40.889Z,28652.5
2023-04-27T14:46:05.039Z,27770.8
2023-04-27T14:51:24.582Z,16940
2023-04-27T14:56:40.723Z,15083.7
2023-04-27T15:01:56.794Z,13294.2
2023-04-27T15:12:29.504Z,10427.1
2023-04-27T15:17:48.633Z,11857.1
2023-04-27T15:23:05.716Z,12163.3
2023-04-27T15:28:22.482Z,11866.7
2023-04-27T15:38:59.193Z,12364.2
2023-04-27T15:44:16.165Z,12621.7
2023-04-27T15:49:37.768Z,12377.9
2023-04-27T15:54:59.645Z,11253.3
2023-04-27T16:00:20.208Z,10120
2023-04-27T16:05:37.128Z,9184.2
2023-04-27T16:10:54.032Z,10182.9
2023-04-27T16:16:11.532Z,11059.2
2023-04-27T16:21:28.597Z,10212.9
2023-04-27T16:26:45.331Z,8769.2
2023-04-27T16:32:01.968Z,7424.6
2023-04-27T16:37:18.436Z,7072.5
2023-04-27T16:42:35.196Z,7321.2
2023-04-27T16:47:54.646Z,7319.6
2023-04-27T16:53:11.688Z,6933.7
2023-04-27T16:58:28.770Z,7819.6
2023-04-27T17:03:46.017Z,7348.7
2023-04-27T17:09:02.879Z,4429.2
2023-04-27T17:14:19.489Z,3849.2
2023-04-27T17:19:36.104Z,3834.6
2023-04-27T17:24:52.962Z,3606.7
2023-04-27T17:30:09.785Z,3323.8
2023-04-27T17:35:26.842Z,3393.8
2023-04-27T17:40:43.790Z,2891.7
2023-04-27T17:51:10.825Z,2017.9
2023-04-27T17:56:27.648Z,1681.3
2023-04-27T18:01:44.573Z,1420.8
2023-04-27T18:07:01.541Z,1130.4
2023-04-27T18:12:18.653Z,781.2
2023-04-27T18:17:35.487Z,597.9
2023-04-27T18:22:52.310Z,502.5
2023-04-27T18:28:09.285Z,447.1
2023-04-27T18:33:26.071Z,220.8
2023-04-27T18:38:42.960Z,191.3
2023-04-27T18:44:01.433Z,140.8
2023-04-27T18:49:18.561Z,92.1
2023-04-27T18:54:35.518Z,67.1
2023-04-27T18:59:52.648Z,40.8
2023-04-27T19:05:13.344Z,17.9
2023-04-27T19:10:31.914Z,6.8
2023-04-27T19:15:49.236Z,2.4
2023-04-27T19:21:07.358Z,0.8
2023-04-27T19:26:28.312Z,0.2
2023-04-27T19:31:46.930Z,0
2023-04-27T19:37:06.232Z,0
2023-04-27T19:42:23.760Z,0
2023-04-27T19:47:41.284Z,0
2023-04-27T19:52:58.658Z,0
2023-04-27T19:58:16.066Z,0
2023-04-27T20:03:33.542Z,0
2023-04-27T20:08:51.104Z,0
2023-04-27T20:14:08.337Z,0
2023-04-27T20:19:30.959Z,0
2023-04-27T20:24:48.575Z,0
2023-04-27T20:30:12.999Z,0
2023-04-27T20:35:30.371Z,0
2023-04-27T20:40:47.790Z,0
2023-04-27T20:46:05.185Z,0
2023-04-27T20:51:22.679Z,0
2023-04-27T20:56:40.004Z,0
2023-04-27T21:01:57.325Z,0
2023-04-27T21:07:14.830Z,0
2023-04-27T21:12:32.056Z,0
2023-04-27T21:17:49.673Z,0
2023-04-27T21:23:06.908Z,0
2023-04-27T21:28:24.114Z,0
2023-04-27T21:33:41.321Z,0
2023-04-27T21:38:58.519Z,0
2023-04-27T21:44:15.932Z,0
2023-04-27T21:49:33.530Z,0
2023-04-27T21:54:50.959Z,0
2023-04-27T22:00:08.677Z,0
2023-04-27T22:05:26.199Z,0
2023-04-27T22:10:43.490Z,0
2023-04-27T22:16:00.681Z,0
2023-04-27T22:21:18.058Z,0
2023-04-27T22:26:35.328Z,0
2023-04-27T22:31:52.703Z,0
2023-04-27T22:37:09.982Z,0
2023-04-27T22:42:27.350Z,0
2023-04-27T22:47:44.615Z,0
2023-04-27T22:53:01.839Z,0
2023-04-27T22:58:19.162Z,0
2023-04-27T23:03:36.554Z,0
2023-04-27T23:08:53.834Z,0
2023-04-27T23:14:11.081Z,0
2023-04-27T23:19:28.521Z,0
2023-04-27T23:24:46.026Z,0
2023-04-27T23:30:03.050Z,0
2023-04-27T23:35:20.168Z,0
2023-04-27T23:40:37.551Z,0
2023-04-27T23:45:54.829Z,0
2023-04-27T23:51:14.761Z,0
2023-04-27T23:56:31.979Z,0
